createdAt,value
2017-12-24T00:01:48.305Z,15.10
2017-12-24T00:04:17.645Z,14.53
2017-12-24T00:06:45.999Z,14.47
2017-12-24T00:09:14.358Z,15.03
2017-12-24T00:11:43.496Z,13.80
2017-12-24T00:14:11.936Z,15.23
2017-12-24T00:16:41.187Z,13.97
2017-12-24T00:19:09.641Z,13.53
2017-12-24T00:21:38.005Z,13.77
2017-12-24T00:24:06.399Z,15.97
2017-12-24T00:26:34.930Z,13.10
2017-12-24T00:29:03.361Z,13.80
2017-12-24T00:31:31.944Z,13.50
2017-12-24T00:34:00.316Z,12.27
2017-12-24T00:36:28.702Z,12.33
2017-12-24T00:38:57.223Z,11.70
2017-12-24T00:41:25.693Z,12.57
2017-12-24T00:43:54.068Z,11.93
2017-12-24T00:46:22.617Z,12.20
2017-12-24T00:48:51.002Z,11.30
2017-12-24T00:51:19.371Z,10.73
2017-12-24T00:53:48.053Z,10.27
2017-12-24T00:56:16.583Z,12.40
2017-12-24T00:58:45.708Z,11.40
2017-12-24T01:01:15.043Z,10.37
2017-12-24T01:03:44.006Z,11.20
2017-12-24T01:06:12.504Z,10.90
2017-12-24T01:08:40.908Z,10.23
2017-12-24T01:11:09.249Z,9.63
2017-12-24T01:13:37.845Z,10.27
2017-12-24T01:16:06.181Z,9.27
2017-12-24T01:18:35.323Z,10.27
2017-12-24T01:21:03.826Z,9.87
2017-12-24T01:23:32.189Z,8.27
2017-12-24T01:26:00.536Z,10.50
2017-12-24T01:28:28.578Z,9.77
2017-12-24T01:30:57.715Z,10.10
2017-12-24T01:33:26.085Z,10.63
2017-12-24T01:35:54.575Z,10.10
2017-12-24T01:38:23.093Z,9.77
2017-12-24T01:40:51.565Z,10.10
2017-12-24T01:43:19.937Z,8.80
2017-12-24T01:45:48.290Z,8.60
2017-12-24T01:48:16.672Z,8.97
2017-12-24T01:50:45.047Z,9.30
2017-12-24T01:53:13.442Z,10.97
2017-12-24T01:55:41.814Z,9.00
2017-12-24T01:58:10.164Z,8.93
2017-12-24T02:00:38.535Z,8.40
2017-12-24T02:03:07.657Z,9.00
2017-12-24T02:05:36.032Z,8.40
2017-12-24T02:08:04.386Z,9.00
2017-12-24T02:10:34.205Z,7.67
2017-12-24T02:13:03.597Z,9.10
2017-12-24T02:15:32.724Z,10.27
2017-12-24T02:18:01.125Z,8.10
2017-12-24T02:20:29.500Z,9.13
2017-12-24T02:22:57.868Z,9.70
2017-12-24T02:25:26.239Z,9.10
2017-12-24T02:27:54.651Z,8.93
2017-12-24T02:30:24.019Z,9.17
2017-12-24T02:32:52.438Z,8.50
2017-12-24T02:35:20.812Z,9.50
2017-12-24T02:37:49.962Z,9.70
2017-12-24T02:40:18.494Z,11.00
2017-12-24T02:42:47.776Z,10.10
2017-12-24T02:45:16.147Z,9.23
2017-12-24T02:47:44.527Z,10.27
2017-12-24T02:50:12.908Z,8.53
2017-12-24T02:52:41.262Z,11.77
2017-12-24T02:55:09.662Z,9.20
2017-12-24T02:57:38.012Z,9.40
2017-12-24T03:00:06.404Z,12.20
2017-12-24T03:02:34.766Z,9.47
2017-12-24T03:05:03.123Z,10.80
2017-12-24T03:07:31.480Z,11.90
2017-12-24T03:10:00.622Z,10.67
2017-12-24T03:12:29.030Z,10.13
2017-12-24T03:14:57.410Z,12.07
2017-12-24T03:17:25.783Z,11.37
2017-12-24T03:19:54.165Z,9.80
2017-12-24T03:22:22.520Z,9.97
2017-12-24T03:24:51.197Z,10.20
2017-12-24T03:27:19.739Z,10.77
2017-12-24T03:29:48.859Z,10.57
2017-12-24T03:32:17.529Z,11.07
2017-12-24T03:34:46.665Z,9.13
2017-12-24T03:37:15.042Z,9.50
2017-12-24T03:39:43.420Z,6.90
2017-12-24T03:42:11.797Z,6.33
2017-12-24T03:44:40.295Z,6.37
2017-12-24T03:47:09.484Z,5.93
2017-12-24T03:49:37.852Z,6.43
2017-12-24T03:52:06.367Z,5.80
2017-12-24T03:54:34.729Z,5.60
2017-12-24T03:57:03.181Z,5.30
2017-12-24T03:59:32.477Z,5.30
2017-12-24T04:02:00.819Z,5.50
2017-12-24T04:04:30.298Z,5.47
2017-12-24T04:06:58.768Z,6.13
2017-12-24T04:09:27.153Z,5.80
2017-12-24T04:11:55.502Z,5.27
2017-12-24T04:14:23.880Z,5.93
2017-12-24T04:16:52.358Z,6.10
2017-12-24T04:19:20.746Z,6.57
2017-12-24T04:21:49.108Z,7.27
2017-12-24T04:24:17.687Z,6.33
2017-12-24T04:26:46.043Z,6.20
2017-12-24T04:29:14.403Z,6.70
2017-12-24T04:31:43.545Z,6.03
2017-12-24T04:34:12.068Z,6.53
2017-12-24T04:36:41.302Z,5.80
2017-12-24T04:39:09.644Z,7.13
2017-12-24T04:41:38.802Z,7.00
2017-12-24T04:44:07.536Z,7.03
2017-12-24T04:46:36.687Z,6.33
2017-12-24T04:49:05.176Z,6.90
2017-12-24T04:51:33.708Z,6.60
2017-12-24T04:54:02.290Z,6.20
2017-12-24T04:56:30.648Z,6.60
2017-12-24T04:58:59.847Z,6.20
2017-12-24T05:01:29.006Z,5.90
2017-12-24T05:03:57.532Z,6.07
2017-12-24T05:06:26.821Z,5.37
2017-12-24T05:08:55.183Z,5.83
2017-12-24T05:11:23.580Z,5.77
2017-12-24T05:13:52.733Z,6.37
2017-12-24T05:16:21.727Z,6.63
2017-12-24T05:18:50.157Z,7.50
2017-12-24T05:21:18.530Z,7.17
2017-12-24T05:23:48.383Z,7.03
2017-12-24T05:26:16.752Z,7.17
2017-12-24T05:28:45.363Z,7.83
2017-12-24T05:31:13.887Z,7.07
2017-12-24T05:33:43.094Z,8.53
2017-12-24T05:36:11.520Z,7.30
2017-12-24T05:38:39.870Z,8.40
2017-12-24T05:41:08.436Z,8.10
2017-12-24T05:43:37.575Z,7.57
2017-12-24T05:46:06.038Z,7.40
2017-12-24T05:48:34.427Z,7.77
2017-12-24T05:51:02.824Z,7.30
2017-12-24T05:53:31.402Z,9.13
2017-12-24T05:55:59.881Z,7.40
2017-12-24T05:58:28.400Z,8.60
2017-12-24T06:00:57.508Z,7.33
2017-12-24T06:03:25.870Z,8.87
2017-12-24T06:05:55.168Z,8.90
2017-12-24T06:08:24.288Z,7.20
2017-12-24T06:10:52.647Z,8.10
2017-12-24T06:13:21.746Z,7.80
2017-12-24T06:15:50.148Z,6.50
2017-12-24T06:18:18.489Z,6.80
2017-12-24T06:20:48.438Z,7.37
2017-12-24T06:23:16.774Z,6.47
2017-12-24T06:25:45.901Z,6.00
2017-12-24T06:28:14.236Z,5.63
2017-12-24T06:30:42.616Z,5.60
2017-12-24T06:33:11.073Z,5.47
2017-12-24T06:35:39.434Z,5.30
2017-12-24T06:38:07.919Z,6.93
2017-12-24T06:40:36.443Z,4.67
2017-12-24T06:43:04.861Z,4.57
2017-12-24T06:45:33.212Z,5.17
2017-12-24T06:48:02.331Z,4.80
2017-12-24T06:50:30.707Z,4.30
2017-12-24T06:52:59.067Z,5.93
2017-12-24T06:55:28.431Z,4.40
2017-12-24T06:57:56.912Z,5.70
2017-12-24T07:00:25.351Z,4.60
2017-12-24T07:02:54.298Z,5.03
2017-12-24T07:05:22.657Z,4.60
2017-12-24T07:07:51.011Z,4.00
2017-12-24T07:10:19.965Z,4.20
2017-12-24T07:12:49.412Z,4.60
2017-12-24T07:15:17.933Z,4.53
2017-12-24T07:17:47.044Z,4.37
2017-12-24T07:20:16.166Z,4.50
2017-12-24T07:22:44.563Z,3.77
2017-12-24T07:25:12.953Z,4.13
2017-12-24T07:27:41.329Z,4.30
2017-12-24T07:30:09.709Z,4.23
2017-12-24T07:32:38.162Z,4.07
2017-12-24T07:35:06.514Z,8.20
2017-12-24T07:37:34.890Z,5.53
2017-12-24T07:40:03.282Z,4.40
2017-12-24T07:42:31.773Z,5.37
2017-12-24T07:45:00.187Z,4.40
2017-12-24T07:47:28.672Z,4.53
2017-12-24T07:49:57.275Z,5.07
2017-12-24T07:52:26.410Z,6.43
2017-12-24T07:54:54.914Z,4.80
2017-12-24T07:57:23.271Z,5.33
2017-12-24T07:59:51.650Z,4.73
2017-12-24T08:02:20.043Z,5.53
2017-12-24T08:04:48.604Z,4.97
2017-12-24T08:07:16.964Z,5.53
2017-12-24T08:09:45.600Z,5.60
2017-12-24T08:12:13.957Z,6.07
2017-12-24T08:14:42.325Z,5.20
2017-12-24T08:17:10.688Z,5.63
2017-12-24T08:19:39.351Z,6.63
2017-12-24T08:22:08.487Z,5.70
2017-12-24T08:24:36.838Z,4.63
2017-12-24T08:27:05.232Z,4.17
2017-12-24T08:29:33.777Z,4.17
2017-12-24T08:32:02.974Z,3.70
2017-12-24T08:34:32.143Z,3.60
2017-12-24T08:37:00.515Z,3.97
2017-12-24T08:39:28.859Z,4.10
2017-12-24T08:41:57.249Z,3.50
2017-12-24T08:44:25.601Z,3.40
2017-12-24T08:46:54.200Z,3.70
2017-12-24T08:49:22.595Z,3.50
2017-12-24T08:51:50.962Z,4.07
2017-12-24T08:54:19.339Z,3.30
2017-12-24T08:56:47.826Z,3.63
2017-12-24T08:59:16.942Z,3.37
2017-12-24T09:01:45.302Z,3.67
2017-12-24T09:04:13.885Z,3.27
2017-12-24T09:06:42.305Z,3.30
2017-12-24T09:09:11.432Z,3.20
2017-12-24T09:11:39.855Z,3.57
2017-12-24T09:14:09.380Z,3.20
2017-12-24T09:16:37.763Z,3.40
2017-12-24T09:19:06.175Z,4.93
2017-12-24T09:21:34.725Z,3.70
2017-12-24T09:24:04.089Z,4.00
2017-12-24T09:26:32.983Z,3.97
2017-12-24T09:29:01.436Z,4.27
2017-12-24T09:31:29.822Z,3.77
2017-12-24T09:33:58.909Z,4.10
2017-12-24T09:36:27.333Z,4.23
2017-12-24T09:38:56.490Z,4.43
2017-12-24T09:41:25.541Z,4.00
2017-12-24T09:43:54.832Z,4.43
2017-12-24T09:46:23.186Z,4.33
2017-12-24T09:48:51.549Z,4.00
2017-12-24T09:51:19.917Z,5.27
2017-12-24T09:53:48.759Z,3.57
2017-12-24T09:56:17.972Z,4.67
2017-12-24T09:58:47.117Z,3.67
2017-12-24T10:01:15.553Z,3.40
2017-12-24T10:03:43.932Z,3.57
2017-12-24T10:06:12.299Z,3.60
2017-12-24T10:08:42.254Z,3.50
2017-12-24T10:11:10.616Z,3.80
2017-12-24T10:13:39.026Z,4.17
2017-12-24T10:16:07.448Z,4.00
2017-12-24T10:18:35.981Z,3.90
2017-12-24T10:21:04.417Z,4.40
2017-12-24T10:23:33.545Z,3.73
2017-12-24T10:26:02.201Z,4.73
2017-12-24T10:28:30.576Z,4.00
2017-12-24T10:30:58.969Z,4.50
2017-12-24T10:33:27.431Z,4.73
2017-12-24T10:35:55.793Z,4.13
2017-12-24T10:38:24.938Z,5.63
2017-12-24T10:40:53.468Z,4.87
2017-12-24T10:43:22.629Z,5.60
2017-12-24T10:45:51.220Z,5.20
2017-12-24T10:48:19.650Z,6.30
2017-12-24T10:50:48.151Z,5.20
2017-12-24T10:53:16.548Z,5.47
2017-12-24T10:55:44.910Z,5.07
2017-12-24T10:58:13.334Z,5.50
2017-12-24T11:00:42.700Z,5.67
2017-12-24T11:03:11.076Z,5.67
2017-12-24T11:05:39.745Z,5.17
2017-12-24T11:08:08.160Z,4.87
2017-12-24T11:10:36.523Z,5.00
2017-12-24T11:13:04.886Z,4.90
2017-12-24T11:15:33.564Z,5.10
2017-12-24T11:18:01.933Z,4.50
2017-12-24T11:20:30.400Z,4.57
2017-12-24T11:22:58.805Z,5.27
2017-12-24T11:25:27.431Z,4.27
2017-12-24T11:27:55.997Z,5.23
2017-12-24T11:30:24.680Z,4.50
2017-12-24T11:32:53.184Z,4.33
2017-12-24T11:35:22.353Z,4.80
2017-12-24T11:37:50.692Z,4.30
2017-12-24T11:40:19.083Z,3.93
2017-12-24T11:42:47.542Z,4.30
2017-12-24T11:45:16.067Z,3.77
2017-12-24T11:47:44.609Z,4.00
2017-12-24T11:50:13.017Z,4.30
2017-12-24T11:52:42.005Z,4.37
2017-12-24T11:55:11.202Z,4.43
2017-12-24T11:57:39.741Z,4.77
2017-12-24T12:00:08.582Z,3.60
2017-12-24T12:02:36.973Z,4.27
2017-12-24T12:05:05.405Z,4.23
2017-12-24T12:07:33.958Z,4.53
2017-12-24T12:10:03.839Z,3.83
2017-12-24T12:12:32.363Z,3.53
2017-12-24T12:15:01.902Z,4.10
2017-12-24T12:17:30.300Z,4.03
2017-12-24T12:19:58.817Z,4.43
2017-12-24T12:22:28.028Z,4.13
2017-12-24T12:24:57.160Z,3.70
2017-12-24T12:27:25.541Z,4.20
2017-12-24T12:29:54.069Z,3.80
2017-12-24T12:32:23.290Z,4.40
2017-12-24T12:34:51.694Z,3.83
2017-12-24T12:37:20.045Z,4.10
2017-12-24T12:39:49.815Z,7.37
2017-12-24T12:42:18.216Z,3.60
2017-12-24T12:44:47.422Z,4.53
2017-12-24T12:47:16.754Z,3.77
2017-12-24T12:49:45.170Z,4.77
2017-12-24T12:52:13.612Z,4.07
2017-12-24T12:54:42.153Z,4.40
2017-12-24T12:57:11.283Z,4.90
2017-12-24T12:59:40.243Z,4.67
2017-12-24T13:02:09.398Z,4.30
2017-12-24T13:04:38.551Z,4.10
2017-12-24T13:07:07.111Z,4.03
2017-12-24T13:09:36.249Z,4.50
2017-12-24T13:12:04.648Z,4.30
2017-12-24T13:14:33.069Z,4.37
2017-12-24T13:17:01.487Z,4.60
2017-12-24T13:19:30.188Z,4.33
2017-12-24T13:21:58.749Z,4.20
2017-12-24T13:24:27.319Z,4.60
2017-12-24T13:26:55.784Z,4.60
2017-12-24T13:29:24.941Z,4.70
2017-12-24T13:31:53.303Z,5.00
2017-12-24T13:34:21.752Z,4.60
2017-12-24T13:36:50.722Z,4.57
2017-12-24T13:39:19.884Z,3.93
2017-12-24T13:41:48.259Z,4.63
2017-12-24T13:44:16.655Z,4.40
2017-12-24T13:46:45.009Z,4.33
2017-12-24T13:49:13.779Z,4.67
2017-12-24T13:51:42.155Z,3.97
2017-12-24T13:54:10.511Z,4.50
2017-12-24T13:56:38.911Z,4.60
2017-12-24T13:59:07.267Z,5.20
2017-12-24T14:01:35.683Z,4.37
2017-12-24T14:04:04.283Z,5.07
2017-12-24T14:06:32.656Z,4.77
2017-12-24T14:09:00.906Z,4.43
2017-12-24T14:11:29.282Z,5.47
2017-12-24T14:13:57.663Z,5.07
2017-12-24T14:16:26.039Z,5.47
2017-12-24T14:18:54.421Z,5.10
2017-12-24T14:21:23.640Z,5.30
2017-12-24T14:23:52.125Z,5.50
2017-12-24T14:26:20.488Z,5.37
2017-12-24T14:28:49.050Z,5.03
2017-12-24T14:31:17.427Z,5.20
2017-12-24T14:33:45.827Z,7.20
2017-12-24T14:36:14.460Z,6.53
2017-12-24T14:38:43.743Z,6.07
2017-12-24T14:41:12.885Z,6.03
2017-12-24T14:43:41.273Z,5.57
2017-12-24T14:46:10.004Z,6.50
2017-12-24T14:48:38.552Z,6.53
2017-12-24T14:51:07.117Z,6.63
2017-12-24T14:53:35.611Z,6.40
2017-12-24T14:56:03.979Z,6.60
2017-12-24T14:58:32.576Z,7.00
2017-12-24T15:01:00.926Z,6.83
2017-12-24T15:03:29.493Z,6.60
2017-12-24T15:05:57.870Z,6.90
2017-12-24T15:08:26.424Z,6.97
2017-12-24T15:10:54.777Z,7.73
2017-12-24T15:13:23.289Z,8.10
2017-12-24T15:15:51.698Z,7.80
2017-12-24T15:18:20.254Z,8.23
2017-12-24T15:20:49.522Z,8.17
2017-12-24T15:23:17.882Z,9.20
2017-12-24T15:25:46.425Z,8.10
2017-12-24T15:28:15.600Z,8.63
2017-12-24T15:30:44.834Z,6.90
2017-12-24T15:33:13.217Z,7.90
2017-12-24T15:35:41.817Z,7.37
2017-12-24T15:38:10.338Z,7.33
2017-12-24T15:40:38.699Z,7.20
2017-12-24T15:43:07.124Z,7.00
2017-12-24T15:45:35.475Z,7.40
2017-12-24T15:48:04.687Z,6.47
2017-12-24T15:50:33.825Z,6.60
2017-12-24T15:53:02.526Z,6.70
2017-12-24T15:55:31.015Z,6.50
2017-12-24T15:57:59.396Z,6.40
2017-12-24T16:00:28.027Z,6.37
2017-12-24T16:02:56.713Z,6.10
2017-12-24T16:05:26.822Z,11.03
2017-12-24T16:07:55.939Z,7.20
2017-12-24T16:10:24.564Z,7.20
2017-12-24T16:12:52.943Z,6.83
2017-12-24T16:15:21.307Z,7.40
2017-12-24T16:17:49.690Z,7.93
2017-12-24T16:20:18.198Z,6.37
2017-12-24T16:22:47.848Z,6.87
2017-12-24T16:25:16.272Z,6.00
2017-12-24T16:27:44.645Z,7.33
2017-12-24T16:30:13.053Z,8.00
2017-12-24T16:32:42.397Z,7.17
2017-12-24T16:35:11.047Z,7.73
2017-12-24T16:37:40.193Z,7.30
2017-12-24T16:40:08.561Z,7.90
2017-12-24T16:42:36.850Z,8.57
2017-12-24T16:45:05.219Z,7.37
2017-12-24T16:47:33.637Z,7.90
2017-12-24T16:50:02.049Z,7.13
2017-12-24T16:52:30.647Z,8.17
2017-12-24T16:54:59.178Z,8.00
2017-12-24T16:57:28.463Z,7.40
2017-12-24T16:59:57.853Z,6.80
2017-12-24T17:02:26.247Z,12.60
2017-12-24T17:04:54.776Z,6.80
2017-12-24T17:07:23.162Z,7.07
2017-12-24T17:09:51.618Z,7.00
2017-12-24T17:12:20.313Z,6.90
2017-12-24T17:14:49.104Z,7.90
2017-12-24T17:17:17.631Z,7.90
2017-12-24T17:19:46.139Z,7.87
2017-12-24T17:22:15.260Z,9.00
2017-12-24T17:24:43.646Z,8.03
2017-12-24T17:27:12.060Z,8.10
2017-12-24T17:29:40.601Z,8.27
2017-12-24T17:32:09.165Z,8.57
2017-12-24T17:34:37.717Z,8.27
2017-12-24T17:37:06.935Z,8.10
2017-12-24T17:39:35.331Z,10.60
2017-12-24T17:42:03.764Z,13.30
2017-12-24T17:44:35.167Z,9.73
2017-12-24T17:47:03.545Z,10.20
2017-12-24T17:49:31.940Z,10.43
2017-12-24T17:52:00.550Z,12.47
2017-12-24T17:54:29.107Z,15.17
2017-12-24T17:56:57.608Z,11.47
2017-12-24T17:59:27.247Z,11.93
2017-12-24T18:01:56.539Z,11.63
2017-12-24T18:04:25.854Z,13.37
2017-12-24T18:06:54.242Z,11.13
2017-12-24T18:09:22.607Z,12.37
2017-12-24T18:11:51.784Z,11.30
2017-12-24T18:14:20.990Z,13.10
2017-12-24T18:16:50.127Z,12.37
2017-12-24T18:19:18.505Z,11.10
2017-12-24T18:21:46.950Z,11.53
2017-12-24T18:24:16.075Z,10.80
2017-12-24T18:26:44.572Z,12.30
2017-12-24T18:29:13.112Z,12.67
2017-12-24T18:31:42.296Z,9.80
2017-12-24T18:34:10.748Z,11.47
2017-12-24T18:36:38.833Z,11.53
2017-12-24T18:39:07.267Z,11.77
2017-12-24T18:41:35.794Z,9.93
2017-12-24T18:44:04.341Z,10.73
2017-12-24T18:46:32.718Z,9.03
2017-12-24T18:49:01.288Z,12.23
2017-12-24T18:51:29.810Z,10.70
2017-12-24T18:53:58.922Z,9.47
2017-12-24T18:56:28.076Z,10.33
2017-12-24T18:58:56.443Z,10.17
2017-12-24T19:01:24.834Z,10.70
2017-12-24T19:03:53.200Z,11.13
2017-12-24T19:06:21.570Z,10.20
2017-12-24T19:08:50.112Z,7.83
2017-12-24T19:11:18.582Z,7.53
2017-12-24T19:13:47.013Z,8.80
2017-12-24T19:16:15.377Z,9.00
2017-12-24T19:18:43.740Z,8.80
2017-12-24T19:21:12.866Z,7.70
2017-12-24T19:23:41.381Z,7.33
2017-12-24T19:26:09.734Z,9.00
2017-12-24T19:28:38.100Z,11.27
2017-12-24T19:31:06.532Z,9.97
2017-12-24T19:33:35.838Z,9.60
2017-12-24T19:36:04.995Z,11.10
2017-12-24T19:38:33.330Z,9.80
2017-12-24T19:41:01.760Z,8.37
2017-12-24T19:43:30.128Z,8.27
2017-12-24T19:45:58.510Z,8.77
2017-12-24T19:48:27.067Z,7.50
2017-12-24T19:50:55.538Z,9.13
2017-12-24T19:53:23.994Z,7.53
2017-12-24T19:55:53.126Z,7.73
2017-12-24T19:58:21.505Z,8.87
2017-12-24T20:00:49.850Z,7.80
2017-12-24T20:03:18.975Z,8.60
2017-12-24T20:05:47.418Z,8.33
2017-12-24T20:08:16.576Z,8.00
2017-12-24T20:10:45.161Z,8.10
2017-12-24T20:13:13.576Z,7.30
2017-12-24T20:15:42.832Z,7.43
2017-12-24T20:18:11.240Z,7.70
2017-12-24T20:20:40.358Z,6.33
2017-12-24T20:23:08.737Z,6.77
2017-12-24T20:25:37.104Z,6.73
2017-12-24T20:28:06.227Z,6.60
2017-12-24T20:30:34.607Z,6.40
2017-12-24T20:33:03.103Z,6.60
2017-12-24T20:35:31.481Z,6.83
2017-12-24T20:37:59.859Z,5.87
2017-12-24T20:40:28.273Z,5.50
2017-12-24T20:42:56.654Z,5.50
2017-12-24T20:45:25.833Z,4.67
2017-12-24T20:47:54.299Z,4.23
2017-12-24T20:50:22.580Z,4.70
2017-12-24T20:52:51.190Z,4.80
2017-12-24T20:55:20.316Z,4.70
2017-12-24T20:57:48.687Z,5.43
2017-12-24T21:00:17.872Z,5.47
2017-12-24T21:02:47.673Z,4.67
2017-12-24T21:05:16.067Z,4.47
2017-12-24T21:07:45.194Z,4.67
2017-12-24T21:10:14.718Z,4.03
2017-12-24T21:12:43.862Z,4.10
2017-12-24T21:15:13.108Z,4.20
2017-12-24T21:17:41.452Z,3.50
2017-12-24T21:20:09.976Z,4.00
2017-12-24T21:22:38.659Z,3.83
2017-12-24T21:25:07.169Z,3.00
2017-12-24T21:27:35.648Z,2.90
2017-12-24T21:30:04.204Z,2.80
2017-12-24T21:32:33.067Z,3.57
2017-12-24T21:35:01.238Z,3.40
2017-12-24T21:37:29.991Z,3.37
2017-12-24T21:39:59.482Z,3.17
2017-12-24T21:42:27.872Z,3.03
2017-12-24T21:44:57.147Z,3.40
2017-12-24T21:47:25.511Z,3.90
2017-12-24T21:49:53.887Z,3.63
2017-12-24T21:52:22.402Z,3.63
2017-12-24T21:54:51.551Z,3.43
2017-12-24T21:57:19.984Z,3.53
2017-12-24T21:59:49.122Z,3.27
2017-12-24T22:02:17.490Z,3.73
2017-12-24T22:04:45.851Z,3.77
2017-12-24T22:07:14.385Z,3.43
2017-12-24T22:09:42.751Z,3.60
2017-12-24T22:12:11.127Z,3.40
2017-12-24T22:14:39.596Z,3.53
2017-12-24T22:17:08.172Z,3.30
2017-12-24T22:19:36.655Z,3.70
2017-12-24T22:22:05.227Z,3.47
2017-12-24T22:24:33.607Z,3.90
2017-12-24T22:27:01.959Z,3.90
2017-12-24T22:29:31.114Z,4.50
2017-12-24T22:31:59.481Z,3.83
2017-12-24T22:34:27.955Z,3.70
2017-12-24T22:36:56.309Z,4.03
2017-12-24T22:39:24.666Z,3.47
2017-12-24T22:41:53.814Z,3.90
2017-12-24T22:44:22.493Z,4.00
2017-12-24T22:46:50.883Z,3.90
2017-12-24T22:49:19.244Z,3.43
2017-12-24T22:51:47.625Z,3.30
2017-12-24T22:54:15.993Z,3.47
2017-12-24T22:56:44.357Z,3.70
2017-12-24T22:59:12.845Z,3.23
2017-12-24T23:01:41.356Z,3.40
2017-12-24T23:04:09.905Z,3.30
2017-12-24T23:06:38.338Z,3.23
2017-12-24T23:09:07.481Z,3.77
2017-12-24T23:11:35.835Z,3.43
2017-12-24T23:14:04.989Z,4.13
2017-12-24T23:16:33.359Z,3.30
2017-12-24T23:19:02.378Z,3.60
2017-12-24T23:21:30.750Z,3.90
2017-12-24T23:23:59.187Z,3.70
2017-12-24T23:26:27.700Z,4.07
2017-12-24T23:28:56.140Z,4.00
2017-12-24T23:31:24.515Z,4.27
2017-12-24T23:33:52.873Z,4.47
2017-12-24T23:36:22.000Z,4.33
2017-12-24T23:38:50.400Z,3.83
2017-12-24T23:41:18.775Z,3.93
2017-12-24T23:43:47.135Z,3.60
2017-12-24T23:46:15.532Z,5.83
2017-12-24T23:48:43.887Z,3.40
2017-12-24T23:51:12.377Z,3.70
2017-12-24T23:53:40.757Z,3.40
2017-12-24T23:56:09.279Z,3.50
2017-12-24T23:58:38.422Z,3.40
